Time;durP1;ratioP1;P1;durP2;ratioP2;P2;SDS_P1;SDS_P2;PMS_P1;PMS_P2;Temp;Humidity;BMP_temperature;BMP_pressure;BME280_temperature;BME280_humidity;BME280_pressure;Samples;Min_cycle;Max_cycle;Signal;HPM_P1;HPM_P2
2021/01/16 00:00:46;;;;;;;13.85;6.53;;;-0.60;99.90;;;;;;4839805;29;20073;-67
2021/01/16 00:03:12;;;;;;;11.25;6.25;;;-0.60;99.90;;;;;;4838843;29;20496;-67
2021/01/16 00:05:39;;;;;;;14.18;7.05;;;-0.60;99.90;;;;;;4839955;29;20072;-67
2021/01/16 00:08:10;;;;;;;14.85;8.45;;;-0.60;99.90;;;;;;4838438;29;20482;-67
2021/01/16 00:10:39;;;;;;;15.38;7.50;;;-0.60;99.90;;;;;;4839041;29;20697;-67
2021/01/16 00:13:05;;;;;;;16.88;7.88;;;-0.60;99.90;;;;;;4839888;29;20118;-67
2021/01/16 00:15:31;;;;;;;14.30;7.45;;;-0.70;99.90;;;;;;4839084;29;20064;-67
2021/01/16 00:18:05;;;;;;;13.38;7.35;;;-0.70;99.90;;;;;;4838920;29;20108;-67
2021/01/16 00:20:33;;;;;;;15.25;7.95;;;-0.70;99.90;;;;;;4839074;29;20511;-67
2021/01/16 00:22:59;;;;;;;15.52;7.80;;;-0.60;99.90;;;;;;4807005;29;20497;-67
2021/01/16 00:25:26;;;;;;;15.98;8.68;;;-0.70;99.90;;;;;;4839764;29;20053;-68
2021/01/16 00:27:51;;;;;;;15.02;7.38;;;-0.70;99.90;;;;;;4837864;29;20169;-67
2021/01/16 00:30:20;;;;;;;12.98;6.90;;;-0.70;99.90;;;;;;4839407;29;20041;-67
2021/01/16 00:32:46;;;;;;;14.75;7.80;;;-0.70;99.90;;;;;;4837593;29;20053;-67
2021/01/16 00:35:15;;;;;;;15.60;8.43;;;-0.70;99.90;;;;;;4838903;29;20466;-67
2021/01/16 00:37:43;;;;;;;17.23;8.83;;;-0.70;99.90;;;;;;4838357;29;20865;-67
2021/01/16 00:40:12;;;;;;;14.27;7.90;;;-0.70;99.90;;;;;;4839052;29;20050;-67
2021/01/16 00:42:43;;;;;;;17.17;8.13;;;-0.70;99.90;;;;;;4834651;29;20094;-67
2021/01/16 00:45:10;;;;;;;14.18;6.88;;;-0.60;99.90;;;;;;4835524;29;20581;-66
2021/01/16 00:47:40;;;;;;;13.10;7.45;;;-0.60;99.90;;;;;;4821577;29;20034;-67
2021/01/16 00:50:11;;;;;;;18.95;8.95;;;-0.60;99.90;;;;;;4839080;29;20544;-67
2021/01/16 00:52:37;;;;;;;14.23;7.28;;;-0.60;99.90;;;;;;4821864;29;20078;-67
2021/01/16 00:55:05;;;;;;;15.32;7.72;;;-0.60;99.90;;;;;;4835573;29;20038;-67
2021/01/16 00:57:31;;;;;;;14.68;7.80;;;-0.50;99.90;;;;;;4839362;29;20123;-67
2021/01/16 00:59:56;;;;;;;13.30;7.07;;;-0.60;99.90;;;;;;4838418;29;20545;-67
2021/01/16 01:02:23;;;;;;;15.07;7.70;;;-0.60;99.90;;;;;;4837681;29;20034;-67
2021/01/16 01:04:49;;;;;;;13.00;7.10;;;-0.60;99.90;;;;;;4837329;29;20040;-67
2021/01/16 01:07:15;;;;;;;14.77;7.65;;;-0.60;99.90;;;;;;4838369;29;20041;-67
2021/01/16 01:09:42;;;;;;;14.38;7.13;;;-0.60;99.90;;;;;;4838020;29;20038;-67
2021/01/16 01:12:10;;;;;;;15.82;7.75;;;-0.60;99.90;;;;;;4837735;29;20041;-67
2021/01/16 01:14:36;;;;;;;15.65;7.00;;;-0.60;99.90;;;;;;4835721;29;20087;-67
2021/01/16 01:17:03;;;;;;;12.82;7.25;;;-0.60;99.90;;;;;;4837104;29;20029;-66
2021/01/16 01:19:29;;;;;;;16.23;7.07;;;-0.60;99.90;;;;;;4838406;29;20049;-67
2021/01/16 01:21:54;;;;;;;15.80;7.93;;;-0.60;99.90;;;;;;4838124;29;20520;-67
2021/01/16 01:24:20;;;;;;;14.88;7.18;;;-0.60;99.90;;;;;;4837512;29;20041;-67
2021/01/16 01:26:46;;;;;;;15.63;7.28;;;-0.60;99.90;;;;;;4837657;29;20064;-67
2021/01/16 01:29:12;;;;;;;13.15;7.53;;;-0.60;99.90;;;;;;4837268;29;20038;-67
2021/01/16 01:31:38;;;;;;;12.75;6.97;;;-0.60;99.90;;;;;;4837878;29;20492;-67
2021/01/16 01:34:04;;;;;;;13.68;7.18;;;-0.50;99.90;;;;;;4837903;29;20050;-68
2021/01/16 01:36:30;;;;;;;12.70;6.70;;;-0.50;99.90;;;;;;4837033;29;20050;-66
2021/01/16 01:38:56;;;;;;;13.25;7.65;;;-0.60;99.90;;;;;;4838489;29;20050;-67
2021/01/16 01:41:22;;;;;;;14.18;6.88;;;-0.60;99.90;;;;;;4837786;29;20193;-67
2021/01/16 01:43:48;;;;;;;13.82;7.50;;;-0.60;99.90;;;;;;4837114;29;20438;-66
2021/01/16 01:46:18;;;;;;;13.07;7.47;;;-0.60;99.90;;;;;;4838563;29;20050;-67
2021/01/16 01:48:45;;;;;;;13.13;7.13;;;-0.60;99.90;;;;;;4836669;29;20557;-66
2021/01/16 01:51:12;;;;;;;13.10;6.93;;;-0.70;99.90;;;;;;4838078;29;20126;-67
2021/01/16 01:53:40;;;;;;;15.90;7.18;;;-0.70;99.90;;;;;;4837448;29;20421;-67
2021/01/16 01:56:07;;;;;;;12.13;6.53;;;-0.70;99.90;;;;;;4837702;29;20033;-68
2021/01/16 01:58:36;;;;;;;12.63;7.40;;;-0.70;99.90;;;;;;4838711;29;20184;-66
2021/01/16 02:01:02;;;;;;;14.23;6.88;;;-0.70;99.90;;;;;;4837750;29;20050;-67
2021/01/16 02:03:31;;;;;;;13.52;7.00;;;-0.70;99.90;;;;;;4835645;29;20643;-67
2021/01/16 02:05:57;;;;;;;12.65;7.05;;;-0.70;99.90;;;;;;4838415;29;20168;-66
2021/01/16 02:08:23;;;;;;;12.90;6.53;;;-0.70;99.90;;;;;;4836710;29;20037;-66
2021/01/16 02:10:50;;;;;;;15.00;7.30;;;-0.80;99.90;;;;;;4837535;29;20116;-67
2021/01/16 02:13:16;;;;;;;15.00;7.15;;;-0.80;99.90;;;;;;4835484;29;20112;-67
2021/01/16 02:16:04;;;;;;;13.45;7.20;;;-0.90;99.90;;;;;;4836821;29;20056;-67
2021/01/16 02:18:45;;;;;;;11.68;6.75;;;-0.90;99.90;;;;;;4834753;29;20125;-67
2021/01/16 02:21:19;;;;;;;14.68;7.20;;;-1.00;99.90;;;;;;4836365;29;20033;-67
2021/01/16 02:23:56;;;;;;;12.80;6.88;;;-1.00;99.90;;;;;;4835789;29;20524;-67
2021/01/16 02:26:30;;;;;;;14.20;6.80;;;-1.00;99.90;;;;;;4837884;29;20025;-67
2021/01/16 02:29:04;;;;;;;14.43;7.63;;;-1.00;99.90;;;;;;4837531;29;20071;-67
2021/01/16 02:31:56;;;;;;;12.45;6.57;;;-1.20;99.90;;;;;;4836382;29;20038;-67
2021/01/16 02:34:33;;;;;;;14.90;7.00;;;-1.20;99.90;;;;;;4835179;29;20050;-67
2021/01/16 02:37:20;;;;;;;13.07;6.97;;;-1.20;99.90;;;;;;4837807;29;20470;-66
2021/01/16 02:39:56;;;;;;;15.80;7.15;;;-1.20;99.90;;;;;;4836534;29;20114;-67
2021/01/16 02:42:42;;;;;;;13.40;7.63;;;-1.40;99.90;;;;;;4836952;29;20033;-66
2021/01/16 02:45:12;;;;;;;13.23;7.07;;;-1.50;99.90;;;;;;4833040;29;20035;-66
2021/01/16 02:48:05;;;;;;;12.98;6.75;;;-1.50;99.90;;;;;;4833553;29;20765;-66
2021/01/16 02:50:39;;;;;;;13.77;7.18;;;-1.50;99.90;;;;;;4837190;29;20382;-66
2021/01/16 02:53:07;;;;;;;12.63;6.90;;;-1.50;99.90;;;;;;4836324;29;20056;-65
2021/01/16 02:55:33;;;;;;;13.40;6.95;;;-1.70;99.90;;;;;;4837576;29;20045;-66
2021/01/16 02:57:59;;;;;;;16.15;8.98;;;-1.80;99.90;;;;;;4835819;29;20081;-63
2021/01/16 03:00:25;;;;;;;17.55;8.30;;;-2.00;99.90;;;;;;4837159;29;20793;-63
2021/01/16 03:02:51;;;;;;;14.55;7.68;;;-2.00;99.90;;;;;;4835768;29;20038;-63
2021/01/16 03:05:17;;;;;;;15.18;8.07;;;-1.90;99.90;;;;;;4836616;29;20080;-63
2021/01/16 03:07:44;;;;;;;18.55;8.40;;;-1.80;99.90;;;;;;4836959;29;20717;-62
2021/01/16 03:10:11;;;;;;;14.32;6.90;;;-1.80;99.90;;;;;;4819663;29;20062;-63
2021/01/16 03:12:37;;;;;;;15.35;8.07;;;-1.90;99.90;;;;;;4836326;29;20041;-63
2021/01/16 03:15:17;;;;;;;13.90;7.15;;;-2.00;99.90;;;;;;4804689;29;20073;-63
2021/01/16 03:17:54;;;;;;;14.07;6.75;;;-2.00;99.90;;;;;;4836200;29;20038;-63
2021/01/16 03:20:28;;;;;;;18.63;8.63;;;-2.00;99.90;;;;;;4836905;29;20049;-63
2021/01/16 03:22:56;;;;;;;17.42;8.32;;;-2.10;99.90;;;;;;4836385;29;20229;-63
2021/01/16 03:25:25;;;;;;;14.98;6.60;;;-2.20;99.90;;;;;;4836454;29;20629;-63
2021/01/16 03:27:52;;;;;;;17.03;8.27;;;-2.20;99.90;;;;;;4837433;29;20034;-62
2021/01/16 03:30:19;;;;;;;15.48;7.93;;;-2.30;99.90;;;;;;4840179;29;20049;-63
2021/01/16 03:32:46;;;;;;;15.35;7.00;;;-2.30;99.90;;;;;;4838117;29;20056;-63
2021/01/16 03:35:16;;;;;;;15.27;7.78;;;-2.40;99.90;;;;;;4839010;29;20034;-63
2021/01/16 03:37:45;;;;;;;17.48;8.15;;;-2.50;99.90;;;;;;4838827;29;20037;-63
2021/01/16 03:40:12;;;;;;;18.30;8.63;;;-2.50;99.90;;;;;;4838971;29;20050;-63
2021/01/16 03:42:39;;;;;;;20.92;7.63;;;-2.50;99.90;;;;;;4840144;29;20054;-63
2021/01/16 03:45:08;;;;;;;17.65;8.80;;;-2.60;99.90;;;;;;4839656;29;20275;-62
2021/01/16 03:47:34;;;;;;;17.05;8.48;;;-2.70;99.90;;;;;;4838948;29;20030;-62
2021/01/16 03:50:00;;;;;;;17.70;8.52;;;-2.80;99.90;;;;;;4839676;29;20034;-62
2021/01/16 03:52:31;;;;;;;12.98;7.22;;;-2.80;99.90;;;;;;4838651;29;20034;-62
2021/01/16 03:54:57;;;;;;;17.75;8.38;;;-2.90;99.90;;;;;;4838016;29;20061;-62
2021/01/16 03:57:24;;;;;;;16.08;8.32;;;-2.90;99.90;;;;;;4839532;29;21021;-63
2021/01/16 03:59:50;;;;;;;19.45;8.10;;;-2.90;99.90;;;;;;4839499;29;20148;-62
2021/01/16 04:02:17;;;;;;;14.52;7.72;;;-2.90;99.90;;;;;;4840196;29;20094;-62
2021/01/16 04:04:44;;;;;;;16.60;8.05;;;-3.00;99.90;;;;;;4837085;29;20034;-63
2021/01/16 04:07:10;;;;;;;16.77;7.82;;;-3.00;99.90;;;;;;4822286;29;20037;-62
2021/01/16 04:09:35;;;;;;;18.45;8.40;;;-3.00;99.90;;;;;;4839899;29;20085;-62
2021/01/16 04:12:01;;;;;;;13.65;7.13;;;-2.90;99.90;;;;;;4839903;29;20871;-63
2021/01/16 04:14:27;;;;;;;15.10;7.93;;;-2.90;99.90;;;;;;4836713;29;20071;-63
2021/01/16 04:16:53;;;;;;;16.63;7.82;;;-2.90;99.90;;;;;;4839121;29;20046;-62
2021/01/16 04:19:19;;;;;;;14.05;6.80;;;-3.00;99.90;;;;;;4840291;29;20049;-62
2021/01/16 04:21:46;;;;;;;15.05;7.88;;;-3.20;99.90;;;;;;4838760;29;20070;-62
2021/01/16 04:24:12;;;;;;;15.95;7.13;;;-3.30;99.90;;;;;;4837619;29;20156;-64
2021/01/16 04:26:38;;;;;;;14.52;8.07;;;-3.30;99.90;;;;;;4840397;29;20523;-64
2021/01/16 04:29:04;;;;;;;14.27;7.40;;;-3.20;99.90;;;;;;4838410;29;20038;-64
2021/01/16 04:31:30;;;;;;;15.63;7.30;;;-3.30;99.90;;;;;;4839644;29;20790;-64
2021/01/16 04:33:55;;;;;;;44.33;9.80;;;-3.30;99.90;;;;;;4837856;29;20048;-64
2021/01/16 04:36:21;;;;;;;13.60;6.40;;;-3.30;99.90;;;;;;4838168;29;20061;-65
2021/01/16 04:38:47;;;;;;;15.50;7.40;;;-3.30;99.90;;;;;;4836909;29;20038;-64
2021/01/16 04:41:13;;;;;;;15.20;7.45;;;-3.40;99.90;;;;;;4839058;29;20120;-62
2021/01/16 04:43:40;;;;;;;16.00;7.60;;;-3.40;99.90;;;;;;4838003;29;20397;-64
2021/01/16 04:46:08;;;;;;;16.05;7.55;;;-3.40;99.90;;;;;;4838284;29;20044;-62
2021/01/16 04:48:37;;;;;;;17.77;7.53;;;-3.40;99.90;;;;;;4836189;29;20125;-62
2021/01/16 04:51:04;;;;;;;14.57;7.15;;;-3.50;99.90;;;;;;4838716;29;20520;-62
2021/01/16 04:53:40;;;;;;;17.85;8.52;;;-3.60;99.90;;;;;;4837775;29;20509;-62
2021/01/16 04:56:08;;;;;;;18.92;8.68;;;-3.70;99.90;;;;;;4838186;29;20045;-62
2021/01/16 04:58:38;;;;;;;16.40;7.35;;;-3.70;99.90;;;;;;4836018;29;20038;-62
2021/01/16 05:01:06;;;;;;;15.50;7.90;;;-3.60;99.90;;;;;;4838051;29;20070;-62
2021/01/16 05:03:41;;;;;;;17.85;9.07;;;-3.60;99.90;;;;;;4838152;29;20068;-62
2021/01/16 05:06:12;;;;;;;16.85;8.32;;;-3.70;99.90;;;;;;4838538;29;20030;-62
2021/01/16 05:08:41;;;;;;;18.70;8.35;;;-3.70;99.90;;;;;;4821602;29;20464;-62
2021/01/16 05:11:17;;;;;;;16.75;8.13;;;-3.70;99.90;;;;;;4838264;29;20030;-62
2021/01/16 05:13:45;;;;;;;16.67;8.50;;;-3.70;99.90;;;;;;4806025;29;20033;-62
2021/01/16 05:16:17;;;;;;;15.50;7.82;;;-3.70;99.90;;;;;;4838704;29;20129;-62
2021/01/16 05:18:44;;;;;;;19.65;9.20;;;-3.80;99.90;;;;;;4837111;29;20048;-62
2021/01/16 05:21:11;;;;;;;17.45;8.77;;;-3.80;99.90;;;;;;4835855;29;20050;-62
2021/01/16 05:23:44;;;;;;;16.40;9.48;;;-3.80;99.90;;;;;;4835714;29;20060;-62
2021/01/16 05:26:10;;;;;;;18.17;8.30;;;-3.80;99.90;;;;;;4838281;29;20041;-62
2021/01/16 05:28:39;;;;;;;16.15;8.60;;;-3.70;99.90;;;;;;4819817;29;20032;-62
2021/01/16 05:31:08;;;;;;;14.93;8.50;;;-3.70;99.90;;;;;;4837064;29;20145;-62
2021/01/16 05:33:38;;;;;;;15.30;8.50;;;-3.80;99.90;;;;;;4832627;29;20145;-62
2021/01/16 05:36:07;;;;;;;16.10;8.95;;;-3.90;99.90;;;;;;4837376;29;20445;-62
2021/01/16 05:38:40;;;;;;;17.05;9.15;;;-3.90;99.90;;;;;;4837621;29;20047;-62
2021/01/16 05:41:12;;;;;;;28.25;12.73;;;-3.90;99.90;;;;;;4837710;29;20116;-62
2021/01/16 05:43:39;;;;;;;45.17;19.83;;;-3.90;99.90;;;;;;4838704;29;20038;-62
2021/01/16 05:46:09;;;;;;;34.45;15.85;;;-3.90;99.90;;;;;;4837555;29;20140;-62
2021/01/16 05:48:36;;;;;;;23.15;10.32;;;-3.80;99.90;;;;;;4837139;29;20079;-62
2021/01/16 05:51:03;;;;;;;19.75;9.63;;;-3.70;99.90;;;;;;4838617;29;20029;-62
2021/01/16 05:53:29;;;;;;;19.63;9.70;;;-3.80;99.90;;;;;;4835323;29;20114;-62
2021/01/16 05:55:56;;;;;;;19.55;10.05;;;-3.80;99.90;;;;;;4836674;29;20552;-62
2021/01/16 05:58:29;;;;;;;19.63;9.82;;;-3.90;99.90;;;;;;4839371;29;20046;-63
2021/01/16 06:00:57;;;;;;;19.80;9.05;;;-3.90;99.90;;;;;;4834037;29;20038;-63
2021/01/16 06:03:24;;;;;;;15.77;8.35;;;-3.90;99.90;;;;;;4828778;29;20044;-62
2021/01/16 06:05:51;;;;;;;16.25;8.98;;;-3.90;99.90;;;;;;4831393;29;20087;-62
2021/01/16 06:08:19;;;;;;;18.45;8.95;;;-3.80;99.90;;;;;;4830940;29;20498;-62
2021/01/16 06:10:52;;;;;;;17.40;9.13;;;-3.90;99.90;;;;;;4837700;29;20092;-62
2021/01/16 06:13:20;;;;;;;20.42;10.07;;;-3.90;99.90;;;;;;4835014;29;20445;-62
2021/01/16 06:15:48;;;;;;;18.35;9.63;;;-3.80;99.90;;;;;;4836512;29;20038;-62
2021/01/16 06:18:29;;;;;;;16.40;8.18;;;-3.90;99.90;;;;;;4835787;29;20118;-62
2021/01/16 06:20:56;;;;;;;18.15;9.48;;;-3.90;99.90;;;;;;4831949;29;20045;-62
2021/01/16 06:23:24;;;;;;;20.92;9.80;;;-4.00;99.90;;;;;;4832220;29;20671;-62
2021/01/16 06:25:57;;;;;;;19.45;9.48;;;-4.10;99.90;;;;;;4833932;29;20037;-62
2021/01/16 06:28:29;;;;;;;19.77;9.55;;;-4.00;99.90;;;;;;4834804;29;20034;-62
2021/01/16 06:30:58;;;;;;;19.27;10.20;;;-4.00;99.90;;;;;;4831855;29;20034;-62
2021/01/16 06:33:28;;;;;;;18.85;9.50;;;-4.00;99.90;;;;;;4836324;29;20960;-62
2021/01/16 06:35:59;;;;;;;18.52;9.30;;;-3.90;99.90;;;;;;4835359;29;20034;-62
2021/01/16 06:38:27;;;;;;;16.58;8.50;;;-4.00;99.90;;;;;;4834586;29;20037;-62
2021/01/16 06:40:54;;;;;;;21.00;9.80;;;-4.00;99.90;;;;;;4820272;29;20698;-62
2021/01/16 06:43:26;;;;;;;19.55;10.07;;;-4.00;99.90;;;;;;4835879;29;20033;-62
2021/01/16 06:46:07;;;;;;;53.38;23.98;;;-4.00;99.90;;;;;;4836807;29;20044;-62
2021/01/16 06:48:41;;;;;;;42.92;20.08;;;-3.90;99.90;;;;;;4816618;29;20069;-62
2021/01/16 06:51:21;;;;;;;31.33;15.13;;;-3.90;99.90;;;;;;4817382;29;20070;-62
2021/01/16 06:53:46;;;;;;;26.67;12.48;;;-3.90;99.90;;;;;;4816323;29;20405;-62
2021/01/16 06:56:14;;;;;;;23.05;11.65;;;-3.80;99.90;;;;;;4816838;29;20762;-62
2021/01/16 06:58:43;;;;;;;28.67;13.05;;;-3.90;99.90;;;;;;4815824;29;20051;-63
2021/01/16 07:01:11;;;;;;;30.65;13.90;;;-3.80;99.90;;;;;;4815700;29;20034;-63
2021/01/16 07:03:44;;;;;;;28.20;14.35;;;-3.80;99.90;;;;;;4821812;29;20050;-63
2021/01/16 07:06:17;;;;;;;27.50;13.23;;;-3.70;99.90;;;;;;4823106;29;20424;-62
2021/01/16 07:08:43;;;;;;;28.15;13.65;;;-3.70;99.90;;;;;;4822365;29;20050;-61
2021/01/16 07:11:10;;;;;;;26.30;13.93;;;-3.60;99.90;;;;;;4822433;29;20101;-62
2021/01/16 07:13:38;;;;;;;21.63;11.38;;;-3.60;99.90;;;;;;4821210;29;20532;-62
2021/01/16 07:16:05;;;;;;;22.15;10.95;;;-3.60;99.90;;;;;;4821951;29;20043;-62
2021/01/16 07:18:32;;;;;;;24.73;11.32;;;-3.60;99.90;;;;;;4821446;29;20573;-61
2021/01/16 07:20:59;;;;;;;21.98;10.63;;;-3.60;99.90;;;;;;4837857;29;20041;-62
2021/01/16 07:23:26;;;;;;;18.48;10.25;;;-3.50;99.90;;;;;;4840243;29;20045;-61
2021/01/16 07:25:53;;;;;;;19.80;10.55;;;-3.50;99.90;;;;;;4827377;29;20040;-61
2021/01/16 07:28:24;;;;;;;21.45;10.63;;;-3.60;99.90;;;;;;4841332;29;20272;-62
2021/01/16 07:30:50;;;;;;;21.38;10.35;;;-3.60;99.90;;;;;;4841209;29;20046;-62
2021/01/16 07:33:17;;;;;;;19.88;9.68;;;-3.50;99.90;;;;;;4839701;29;20054;-62
2021/01/16 07:35:51;;;;;;;18.08;10.43;;;-3.40;99.90;;;;;;4841107;29;20034;-61
2021/01/16 07:38:20;;;;;;;22.23;10.93;;;-3.50;99.90;;;;;;4842538;29;20540;-62
2021/01/16 07:40:47;;;;;;;20.50;10.57;;;-3.40;99.90;;;;;;4840065;29;20050;-62
2021/01/16 07:43:45;;;;;;;20.27;9.77;;;-3.40;99.90;;;;;;4838202;29;20541;-62
2021/01/16 07:46:11;;;;;;;21.45;10.48;;;-3.40;99.90;;;;;;4836727;29;20029;-61
2021/01/16 07:48:49;;;;;;;20.15;11.07;;;-3.30;99.90;;;;;;4840894;29;20090;-62
2021/01/16 07:51:17;;;;;;;22.55;12.00;;;-3.30;99.90;;;;;;4837602;29;20062;-61
2021/01/16 07:53:44;;;;;;;20.25;11.38;;;-3.30;99.90;;;;;;4837778;29;20569;-61
2021/01/16 07:56:21;;;;;;;22.08;11.45;;;-3.30;99.90;;;;;;4840841;29;20049;-62
2021/01/16 07:59:23;;;;;;;22.98;10.27;;;-3.20;99.90;;;;;;4838593;29;20464;-62
2021/01/16 08:02:19;;;;;;;22.42;10.85;;;-3.20;99.90;;;;;;4840709;29;20045;-62
2021/01/16 08:05:03;;;;;;;19.95;10.52;;;-3.30;99.90;;;;;;4841284;29;20049;-62
2021/01/16 08:07:57;;;;;;;22.88;10.52;;;-3.20;99.90;;;;;;4840724;29;20093;-62
2021/01/16 08:10:25;;;;;;;17.42;9.70;;;-3.20;99.90;;;;;;4838833;29;20030;-62
2021/01/16 08:12:57;;;;;;;21.38;10.77;;;-3.20;99.90;;;;;;4840353;29;20045;-61
2021/01/16 08:15:29;;;;;;;20.50;11.40;;;-3.10;99.90;;;;;;4835794;29;20034;-62
2021/01/16 08:17:59;;;;;;;22.77;10.60;;;-3.00;99.90;;;;;;4839520;29;20054;-62
2021/01/16 08:20:34;;;;;;;26.73;10.98;;;-3.00;99.90;;;;;;4836425;29;20045;-62
2021/01/16 08:23:03;;;;;;;23.58;10.45;;;-2.90;99.90;;;;;;4833053;29;20058;-65
2021/01/16 08:25:31;;;;;;;22.40;10.50;;;-2.90;99.90;;;;;;4837932;29;20092;-64
2021/01/16 08:27:59;;;;;;;19.75;9.73;;;-2.80;99.90;;;;;;4837502;29;20029;-65
2021/01/16 08:30:27;;;;;;;19.17;10.32;;;-2.80;99.90;;;;;;4835805;29;20033;-65
2021/01/16 08:33:07;;;;;;;19.73;10.65;;;-2.70;99.90;;;;;;4836600;29;20061;-64
2021/01/16 08:35:39;;;;;;;21.42;9.82;;;-2.80;99.90;;;;;;4836400;29;20038;-64
2021/01/16 08:38:17;;;;;;;20.63;10.32;;;-2.80;99.90;;;;;;4816823;29;20033;-66
2021/01/16 08:41:06;;;;;;;17.98;10.10;;;-2.70;99.90;;;;;;4835012;29;20045;-65
2021/01/16 08:43:40;;;;;;;21.38;10.63;;;-2.70;99.90;;;;;;4807082;29;20042;-64
2021/01/16 08:46:16;;;;;;;19.63;11.32;;;-2.70;99.90;;;;;;4834788;29;20493;-64
2021/01/16 08:48:58;;;;;;;22.40;11.68;;;-2.70;99.90;;;;;;4835287;29;20104;-65
2021/01/16 08:51:29;;;;;;;21.08;10.68;;;-2.70;99.90;;;;;;4835335;29;20046;-65
2021/01/16 08:54:15;;;;;;;17.85;10.00;;;-2.50;99.90;;;;;;4835431;29;21209;-65
2021/01/16 08:57:03;;;;;;;21.10;10.25;;;-2.50;99.90;;;;;;4838567;29;20081;-64
2021/01/16 08:59:33;;;;;;;18.95;10.00;;;-2.50;99.90;;;;;;4835733;29;20409;-65
2021/01/16 09:02:10;;;;;;;24.38;10.10;;;-2.50;99.90;;;;;;4835642;29;20057;-66
2021/01/16 09:04:39;;;;;;;19.27;8.73;;;-2.50;99.90;;;;;;4836711;29;20038;-65
2021/01/16 09:07:25;;;;;;;19.08;9.75;;;-2.40;99.90;;;;;;4835629;29;20117;-65
2021/01/16 09:09:54;;;;;;;20.83;10.93;;;-2.20;99.90;;;;;;4835409;29;20380;-65
2021/01/16 09:12:30;;;;;;;20.92;10.48;;;-1.80;99.90;;;;;;4837063;29;20476;-65
2021/01/16 09:15:18;;;;;;;16.08;8.88;;;-1.10;99.90;;;;;;4835693;29;20037;-67
2021/01/16 09:18:15;;;;;;;19.92;9.60;;;0.50;99.90;;;;;;4831883;29;20041;-66
2021/01/16 09:20:46;;;;;;;15.77;7.93;;;1.80;99.90;;;;;;4832323;29;20037;-64
2021/01/16 09:23:20;;;;;;;14.80;8.23;;;3.10;99.90;;;;;;4830007;29;20029;-72
2021/01/16 09:25:47;;;;;;;13.75;8.63;;;3.40;99.90;;;;;;4830615;29;20038;-71
2021/01/16 09:28:13;;;;;;;16.90;9.45;;;2.20;99.90;;;;;;4833387;29;20207;-70
2021/01/16 09:30:39;;;;;;;19.20;9.02;;;0.90;99.90;;;;;;4835674;29;20038;-70
2021/01/16 09:33:25;;;;;;;14.93;8.68;;;0.00;99.90;;;;;;4816395;29;20736;-70
2021/01/16 09:35:51;;;;;;;16.30;8.82;;;-0.60;99.90;;;;;;4831754;29;20036;-67
2021/01/16 09:38:22;;;;;;;18.35;10.20;;;-1.00;99.90;;;;;;4830870;29;20433;-70
2021/01/16 09:40:50;;;;;;;17.55;8.65;;;-1.10;99.90;;;;;;4834367;29;20042;-70
2021/01/16 09:43:20;;;;;;;15.65;8.70;;;-1.40;99.90;;;;;;4830285;29;20076;-70
2021/01/16 09:46:00;;;;;;;16.90;9.38;;;-1.60;99.90;;;;;;4834312;29;20109;-70
2021/01/16 09:48:42;;;;;;;17.50;9.48;;;-1.60;99.90;;;;;;4837429;29;20041;-71
2021/01/16 09:51:10;;;;;;;20.25;9.05;;;-1.70;99.90;;;;;;4819284;29;20097;-70
2021/01/16 09:53:36;;;;;;;19.92;10.00;;;-1.70;99.90;;;;;;4834179;29;20053;-70
2021/01/16 09:56:04;;;;;;;20.65;10.27;;;-1.60;99.90;;;;;;4836156;29;20145;-70
2021/01/16 09:58:39;;;;;;;19.67;9.80;;;-1.60;99.90;;;;;;4834565;29;20034;-71
2021/01/16 10:01:24;;;;;;;20.35;10.88;;;-1.60;99.90;;;;;;4833324;29;20085;-70
2021/01/16 10:03:56;;;;;;;20.83;9.98;;;-0.80;99.90;;;;;;4835102;29;20041;-71
2021/01/16 10:06:33;;;;;;;25.33;10.98;;;0.30;99.90;;;;;;4835417;29;20033;-70
2021/01/16 10:08:59;;;;;;;22.25;12.00;;;1.50;99.90;;;;;;4836645;29;20045;-71
2021/01/16 10:11:40;;;;;;;21.08;10.88;;;1.60;99.90;;;;;;4836652;29;20716;-70
2021/01/16 10:14:15;;;;;;;22.60;9.82;;;2.00;99.90;;;;;;4831102;29;20081;-71
2021/01/16 10:16:43;;;;;;;16.52;8.82;;;2.40;99.90;;;;;;4835334;29;20618;-70
2021/01/16 10:19:13;;;;;;;17.33;8.20;;;2.80;99.90;;;;;;4831125;29;20046;-71
2021/01/16 10:21:54;;;;;;;14.13;8.52;;;3.20;99.90;;;;;;4832539;29;20033;-71
2021/01/16 10:24:21;;;;;;;14.48;8.25;;;3.50;99.90;;;;;;4834192;29;20509;-71
2021/01/16 10:26:47;;;;;;;14.57;8.27;;;3.20;99.90;;;;;;4831584;29;20385;-71
2021/01/16 10:29:36;;;;;;;13.68;7.32;;;2.90;99.90;;;;;;4833798;29;20478;-71
2021/01/16 10:32:18;;;;;;;14.15;7.95;;;3.00;99.90;;;;;;4813845;29;20605;-71
2021/01/16 10:34:44;;;;;;;13.02;7.38;;;3.20;99.90;;;;;;4811167;29;20070;-69
2021/01/16 10:37:11;;;;;;;11.23;6.90;;;3.30;99.90;;;;;;4815822;29;21117;-69
2021/01/16 10:39:39;;;;;;;13.43;7.15;;;3.50;99.90;;;;;;4818379;29;20042;-69
2021/01/16 10:42:12;;;;;;;14.38;7.50;;;3.60;99.90;;;;;;4817780;29;20261;-69
2021/01/16 10:44:39;;;;;;;12.63;7.57;;;3.00;99.90;;;;;;4817729;29;20045;-69
2021/01/16 10:47:31;;;;;;;12.52;7.30;;;2.40;99.90;;;;;;4816425;29;20025;-69
2021/01/16 10:50:07;;;;;;;14.63;7.72;;;1.70;99.90;;;;;;4815163;29;20046;-72
2021/01/16 10:52:33;;;;;;;13.98;8.40;;;1.30;99.90;;;;;;4815166;29;20030;-70
2021/01/16 10:55:00;;;;;;;14.90;8.23;;;0.70;99.90;;;;;;4814834;29;20521;-70
2021/01/16 10:57:38;;;;;;;15.20;8.30;;;0.30;99.90;;;;;;4816768;29;20030;-70
2021/01/16 11:00:11;;;;;;;21.48;10.50;;;0.10;99.90;;;;;;4814708;29;20038;-70
2021/01/16 11:02:38;;;;;;;16.42;8.65;;;-0.20;99.90;;;;;;4789388;29;20039;-70
2021/01/16 11:05:16;;;;;;;15.40;8.43;;;-0.10;99.90;;;;;;4810633;29;20062;-70
2021/01/16 11:07:43;;;;;;;16.60;8.80;;;-0.10;99.90;;;;;;4817186;29;20082;-70
2021/01/16 11:10:10;;;;;;;18.77;9.13;;;-0.10;99.90;;;;;;4813667;29;21048;-70
2021/01/16 11:12:40;;;;;;;16.85;8.90;;;0.00;99.90;;;;;;4817014;29;20872;-70
2021/01/16 11:15:30;;;;;;;18.55;9.68;;;0.20;99.90;;;;;;4814721;29;20569;-70
2021/01/16 11:17:59;;;;;;;17.88;9.20;;;0.30;99.90;;;;;;4809123;29;20809;-70
2021/01/16 11:20:31;;;;;;;17.58;9.23;;;0.30;99.90;;;;;;4818604;29;20042;-69
2021/01/16 11:23:27;;;;;;;21.27;10.25;;;0.30;99.90;;;;;;4814494;29;20066;-70
2021/01/16 11:25:53;;;;;;;20.48;10.60;;;0.40;99.90;;;;;;4816986;29;20030;-70
2021/01/16 11:28:20;;;;;;;18.85;9.10;;;0.50;99.90;;;;;;4817577;29;20517;-70
2021/01/16 11:30:48;;;;;;;18.15;9.70;;;0.40;99.90;;;;;;4817202;29;20083;-69
2021/01/16 11:33:25;;;;;;;18.27;9.07;;;0.50;99.90;;;;;;4827591;29;20437;-67
2021/01/16 11:36:13;;;;;;;18.23;8.52;;;0.50;99.90;;;;;;4831220;29;20037;-68
2021/01/16 11:38:42;;;;;;;16.45;8.70;;;0.70;99.90;;;;;;4830983;29;20037;-68
2021/01/16 11:41:08;;;;;;;13.73;7.47;;;0.70;99.90;;;;;;4836792;29;20026;-69
2021/01/16 11:43:34;;;;;;;16.77;8.38;;;0.90;99.90;;;;;;4835218;29;20036;-69
2021/01/16 11:46:11;;;;;;;16.33;7.93;;;1.10;99.90;;;;;;4835191;29;20065;-69
2021/01/16 11:48:39;;;;;;;18.05;8.45;;;1.40;99.90;;;;;;4832676;29;20565;-70
2021/01/16 11:51:17;;;;;;;15.85;8.68;;;1.50;99.90;;;;;;4838509;29;20044;-69
2021/01/16 11:53:50;;;;;;;18.83;8.75;;;1.70;99.90;;;;;;4838786;29;20113;-69
2021/01/16 11:56:19;;;;;;;16.50;8.45;;;2.00;99.90;;;;;;4840599;29;20758;-69
2021/01/16 11:58:46;;;;;;;22.33;8.77;;;2.30;99.90;;;;;;4839703;29;20038;-69
2021/01/16 12:01:16;;;;;;;17.58;9.05;;;2.30;99.90;;;;;;4839663;29;20141;-69
2021/01/16 12:03:42;;;;;;;19.40;8.73;;;2.40;99.90;;;;;;4838461;29;20034;-69
2021/01/16 12:06:14;;;;;;;18.45;9.27;;;2.50;99.90;;;;;;4839138;29;20053;-70
2021/01/16 12:08:46;;;;;;;16.13;9.55;;;2.50;99.90;;;;;;4839437;29;20102;-69
2021/01/16 12:11:13;;;;;;;17.38;9.85;;;2.60;99.90;;;;;;4839689;29;20838;-69
2021/01/16 12:13:41;;;;;;;20.00;8.95;;;2.90;99.90;;;;;;4833609;29;20034;-69
2021/01/16 12:16:10;;;;;;;14.18;8.27;;;2.90;99.90;;;;;;4838854;29;20624;-69
2021/01/16 12:18:37;;;;;;;16.10;8.55;;;3.00;99.90;;;;;;4838889;29;20041;-69
2021/01/16 12:21:03;;;;;;;15.40;7.93;;;2.90;99.90;;;;;;4832158;29;20045;-69
2021/01/16 12:23:42;;;;;;;18.15;9.05;;;2.90;99.90;;;;;;4832044;29;20101;-69
2021/01/16 12:26:12;;;;;;;20.87;10.20;;;3.10;99.90;;;;;;4824168;29;20980;-69
2021/01/16 12:28:51;;;;;;;17.50;9.17;;;3.20;99.90;;;;;;4817571;29;20469;-69
2021/01/16 12:31:22;;;;;;;14.05;8.23;;;3.10;99.90;;;;;;4824964;29;20471;-69
2021/01/16 12:33:49;;;;;;;19.77;9.57;;;3.10;99.90;;;;;;4830217;29;20158;-69
2021/01/16 12:36:15;;;;;;;15.57;7.95;;;3.10;99.90;;;;;;4836805;29;20054;-70
2021/01/16 12:38:41;;;;;;;14.50;7.95;;;3.10;99.90;;;;;;4837162;29;20038;-70
2021/01/16 12:41:07;;;;;;;16.35;9.27;;;3.60;99.90;;;;;;4834109;29;20040;-70
2021/01/16 12:43:33;;;;;;;16.70;10.15;;;4.10;99.90;;;;;;4835998;29;20037;-70
2021/01/16 12:46:06;;;;;;;16.92;9.80;;;4.60;99.90;;;;;;4837902;29;20977;-70
2021/01/16 12:48:32;;;;;;;18.13;10.15;;;5.10;99.90;;;;;;4836503;29;20121;-70
2021/01/16 12:51:03;;;;;;;17.40;9.80;;;4.90;99.90;;;;;;4836554;29;20553;-70
2021/01/16 12:53:29;;;;;;;20.10;10.93;;;4.40;99.90;;;;;;4833142;29;20067;-69